deformed-offering

Nearby METAR Reports

 

KNUQ - Moffett Nas/Mtn, California, USA
Distance from station: N 9mi, 14km
Updated: Thu, 21-Nov-2019 8:56am PST
NOT Current

 
Barometer: 29.86 inHg , 1011.2 hPa
2019/11/21 16:56 KNUQ 211656Z AUTO A2986 RMK AO2 SLP116 PWINO $
KSJC - San Jose, California, USA
Distance from station: NE 9mi, 14km
Updated: Tue, 28-Jan-2020 9:53am PST
Overcast
Overcast
 Wind from SSE
Wind: SSE 7 mph , 11 km/h
Temperature: 54°F , 12°C
Dew Point: 46°F , 8°C
Humidity: 77%
Barometer: 30.38 inHg , 1028.8 hPa
Clouds: Overcast
Visibility: 10 miles , 16 km
Cloud details: Few Clouds 1200 ft
Mostly Cloudy 2900 ft
Overcast 4000 ft
2020/01/28 17:53 KSJC 281753Z 16006KT 10SM FEW012 BKN029 OVC040 12/08 A3038 RMK AO2 SLP287 T01170078 10117 20094 53006
 
KRHV - San Jose/Reid, California, USA
Distance from station: ENE 12mi, 19km
Updated: Tue, 28-Jan-2020 9:47am PST
Overcast
Overcast
 Wind from SSW
Wind: SSW 3 mph , 6 km/h
Temperature: 52°F , 11°C
Dew Point: 46°F , 8°C
Humidity: 82%
Barometer: 30.39 inHg , 1029.1 hPa
Clouds: Overcast
Visibility: 10 miles , 16 km
Cloud details: Mostly Cloudy 2700 ft
Overcast 4000 ft
2020/01/28 17:47 KRHV 281747Z 20003KT 10SM BKN027 OVC040 11/08 A3039
KPAO - Palo Alto, California, USA
Distance from station: NNW 14mi, 23km
Updated: Tue, 28-Jan-2020 9:47am PST
Mostly Cloudy
Mostly Cloudy
 Wind from SE
Wind: SE 6 mph , 9 km/h
Temperature: 55°F , 13°C
Dew Point: 48°F , 9°C
Humidity: 77%
Barometer: 30.38 inHg , 1028.8 hPa
Clouds: Mostly Cloudy
Visibility: 10 miles , 16 km
Cloud details: Mostly Cloudy 2500 ft
2020/01/28 17:47 KPAO 281747Z 14005KT 10SM BKN025 13/09 A3038
 
KSQL - San Carlos Airpo, California, USA
Distance from station: NW 21mi, 34km
Updated: Tue, 28-Jan-2020 9:47am PST
Overcast
Overcast
 Wind from ESE
Wind: ESE 6 mph , 9 km/h
Temperature: 55°F , 13°C
Dew Point: 48°F , 9°C
Humidity: 77%
Barometer: 30.37 inHg , 1028.4 hPa
Clouds: Overcast
Visibility: 10 miles , 16 km
Cloud details: Overcast 2000 ft
2020/01/28 17:47 KSQL 281747Z 11005KT 10SM OVC020 13/09 A3037
KE16 - San Martin, California, USA
Distance from station: ESE 27mi, 43km
Updated: Thu, 14-Nov-2019 1:35am PST
NOT Current
Overcast
Overcast
 Wind from SE
Wind: SE 7 mph , 11 km/h
Temperature: 54°F , 12°C
Dew Point: 50°F , 10°C
Humidity: 88%
Barometer: 30.05 inHg , 1017.6 hPa
Clouds: Overcast
Visibility: 10 miles , 16 km
Cloud details: Overcast 1400 ft
2019/11/14 09:35 KE16 140935Z AUTO 13006KT 10SM OVC014 12/10 A3005 RMK AO2
 
KWVI - Watsonville, California, USA
Distance from station: SSE 27mi, 44km
Updated: Tue, 28-Jan-2020 9:53am PST
Overcast
Overcast
 Wind from calm
Wind: Calm
Temperature: 54°F , 12°C
Dew Point: 48°F , 9°C
Humidity: 82%
Barometer: 30.40 inHg , 1029.5 hPa
Clouds: Overcast
Visibility: 10 miles , 16 km
Cloud details: Mostly Cloudy 3700 ft
Overcast 4700 ft
2020/01/28 17:53 KWVI 281753Z AUTO 00000KT 10SM BKN037 OVC047 12/09 A3040 RMK AO2 SLP294 T01170094 10117 20089 53009
KHWD - Hayward, California, USA
Distance from station: N 28mi, 44km
Updated: Tue, 28-Jan-2020 9:54am PST
Overcast
Overcast
 Wind from SE
Wind: SE 8 mph , 13 km/h
Temperature: 55°F , 13°C
Dew Point: 48°F , 9°C
Humidity: 77%
Barometer: 30.37 inHg , 1028.4 hPa
Clouds: Overcast
Visibility: 10 miles , 16 km
Cloud details: Overcast 2000 ft
2020/01/28 17:54 KHWD 281754Z 13007KT 10SM OVC020 13/09 A3037 RMK AO2 SLP293 T01280089 10128 20106 51009
 
KSFO - San Francisco, California, USA
Distance from station: NW 30mi, 49km
Updated: Tue, 28-Jan-2020 9:56am PST
Mostly Cloudy
Mostly Cloudy
 Wind from ESE
Wind: ESE 8 mph , 13 km/h
Temperature: 57°F , 14°C
Dew Point: 50°F , 10°C
Humidity: 77%
Barometer: 30.36 inHg , 1028.1 hPa
Clouds: Mostly Cloudy
Visibility: 9 miles , 14 km
Cloud details: Few Clouds 1900 ft
Mostly Cloudy 4100 ft
Mostly Cloudy 5000 ft
2020/01/28 17:56 KSFO 281756Z 12007KT 9SM FEW019 BKN041 BKN050 14/10 A3036 RMK AO2 SLP279 60000 T01390100 10139 20111 50006
KHAF - Half Moon Bay, California, USA
Distance from station: WNW 31mi, 50km
Updated: Tue, 28-Jan-2020 10:00am PST
Mist, Overcast
Mist, Overcast
 Wind from S
Wind: S 7 mph , 11 km/h
Temperature: 54°F , 12°C
Dew Point: 50°F , 10°C
Humidity: 88%
Barometer: 30.38 inHg , 1028.8 hPa
Summary: Mist
Clouds: Overcast
Visibility: 1 1/2 miles , 2.4 km
Cloud details: Overcast 1500 ft
2020/01/28 18:00 KHAF 281800Z AUTO 18006KT 1 1/2SM BR OVC015 12/10 A3038 RMK AO2
 
KOAK - Oakland, California, USA
Distance from station: NNW 31mi, 50km
Updated: Tue, 28-Jan-2020 10:11am PST
Light rain, Mist, Overcast
Light rain, Mist, Overcast
 Wind from SE
Wind: SE 9 mph , 15 km/h
Temperature: 55°F , 13°C
Dew Point: 50°F , 10°C
Humidity: 82%
Barometer: 30.38 inHg , 1028.8 hPa
Summary: Light rain, Mist
Clouds: Overcast
Visibility: 1 3/4 miles , 2.8 km
Cloud details: Overcast 1700 ft
2020/01/28 18:11 KOAK 281811Z 13008KT 1 3/4SM -RA BR OVC017 13/10 A3038 RMK AO2 RAB00 P0002 T01330100
KLVK - Livermore, California, USA
Distance from station: NNE 31mi, 51km
Updated: Tue, 28-Jan-2020 9:53am PST
Overcast
Overcast
 Wind from calm
Wind: Calm
Temperature: 54°F , 12°C
Dew Point: 46°F , 8°C
Humidity: 77%
Barometer: 30.36 inHg , 1028.1 hPa
Clouds: Overcast
Visibility: 10 miles , 16 km
Cloud details: Few Clouds 1300 ft
Overcast 2200 ft
2020/01/28 17:53 KLVK 281753Z 00000KT 10SM FEW013 OVC022 12/08 A3036 RMK AO2 SLP280 T01170083 10117 20072 51004
 
KCVH - Hollister Muni, California, USA
Distance from station: SE 42mi, 68km
Updated: Tue, 28-Jan-2020 10:00am PST
Clear
Clear
 Wind from calm
Wind: Calm
Temperature: 50°F , 10°C
Dew Point: 48°F , 9°C
Humidity: 94%
Barometer: 30.40 inHg , 1029.5 hPa
Clouds: Clear
Visibility: 9 miles , 14 km
2020/01/28 18:00 KCVH 281800Z AUTO 00000KT 9SM CLR 10/09 A3040 RMK A01
KSNS - Salinas, California, USA
Distance from station: SSE 48mi, 77km
Updated: Tue, 28-Jan-2020 9:53am PST
Clear
Clear
 Wind from S
Wind: S 3 mph , 6 km/h
Temperature: 52°F , 11°C
Dew Point: 48°F , 9°C
Humidity: 88%
Barometer: 30.39 inHg , 1029.1 hPa
Clouds: Clear
Visibility: 10 miles , 16 km
2020/01/28 17:53 KSNS 281753Z 19003KT 10SM CLR 11/09 A3039 RMK AO2 SLP300 T01060089 10106 20067 53007
 
KMRY - Monterey, California, USA
Distance from station: SSE 49mi, 78km
Updated: Tue, 28-Jan-2020 9:54am PST
Clear
Clear
 Wind from ESE
Wind: ESE 3 mph , 6 km/h
Temperature: 57°F , 14°C
Dew Point: 46°F , 8°C
Humidity: 67%
Barometer: 30.39 inHg , 1029.1 hPa
Clouds: Clear
Visibility: 10 miles , 16 km
2020/01/28 17:54 KMRY 281754Z 12003KT 10SM CLR 14/08 A3039 RMK AO2 SLP304 T01440083 10144 20089 53010
KCCR - Concord, California, USA
Distance from station: N 50mi, 81km
Updated: Tue, 28-Jan-2020 9:53am PST
Overcast
Overcast
 Wind from S
Wind: S 10 mph , 17 km/h
Temperature: 55°F , 13°C
Dew Point: 50°F , 10°C
Humidity: 82%
Barometer: 30.35 inHg , 1027.8 hPa
Clouds: Overcast
Visibility: 10 miles , 16 km
Cloud details: Few Clouds 3400 ft
Mostly Cloudy 4100 ft
Overcast 4800 ft
2020/01/28 17:53 KCCR 281753Z 18009KT 10SM FEW034 BKN041 OVC048 13/10 A3035 RMK AO2 RAB29E41 SLP263 P0000 60000 T01330100 10133 20094 50006
deformed-offering